Etusivu
METAR-TAF:

METAR-TAF

Lentoasemat :

Hope, Brittiläinen Kolumbia, Kanada

Leveyspiiri: 49-22N, Pituuspiiri: 121-29W, korkeus merenpinnasta: 39 m

Tämänhetkinen sää

Tämä raportti tehtiin 20 minuuttia sitten, kello 09.00 UTC
Tuuli 6 kn lännestä/lounaasta, vaihdellen etelän ja lännen välillä
Lämpötila 4°C
Kosteus 87%
Ilmanpaine 1024 hPa
Näkyvyys: 14.5 km
Hajonneita pilviä 6500 ft:n korkeudessa
Hajonneita pilviä 9100 ft:n korkeudessa
Hajonneita pilviä 13000 ft:n korkeudessa

METAR: CYHE 170900Z AUTO 24006KT 190V270 9SM BKN065 BKN091 BKN130 04/02 A3023 RMK SLP240

Aika: 01:20 (09:20 UTC)


TAF: puuttuu

Säähavainnot ja -ennusteet yli 4000 lentoasemalta (METAR- ja TAF-raportit).

Käytössä olevat sääasemat on merkitty karttaan keltaisilla ja punaisilla pisteillä.

Aseta hiiri pisteen päälle nähdäksesi sääaseman nimen.

Klikkaa sitten nähdäksesi säähavainnot ja -ennusteet.

Kartan vaihtaminen: klikkaa mustalla rastilla varustettuja vihreitä pisteitä, niin voit zoomata sisään; viivalla varustettua vihreää pistettä, niin voit zoomata ulos tai vihreitä nuolia, niin pääset viereisille kartoille.


METAR-TAF: